createdAt,value
2023-05-14T00:01:31.146Z,99977.59
2023-05-14T00:06:33.062Z,99975.63
2023-05-14T00:11:35.024Z,99980.28
2023-05-14T00:16:36.910Z,99985.34
2023-05-14T00:21:38.930Z,99984.25
2023-05-14T00:26:40.834Z,99986.22
2023-05-14T00:31:42.855Z,99981.00
2023-05-14T00:36:44.846Z,99988.25
2023-05-14T00:41:46.658Z,99995.00
2023-05-14T00:46:48.939Z,99990.78
2023-05-14T00:51:51.072Z,99997.41
2023-05-14T00:56:53.143Z,99995.84
2023-05-14T01:01:55.063Z,99995.75
2023-05-14T01:07:08.978Z,99995.69
2023-05-14T01:12:19.919Z,99999.25
2023-05-14T01:17:23.147Z,100007.53
2023-05-14T01:22:25.019Z,100002.41
2023-05-14T01:27:38.764Z,100004.78
2023-05-14T01:32:41.474Z,100016.63
2023-05-14T01:37:44.325Z,100024.00
2023-05-14T01:42:48.268Z,100020.41
2023-05-14T01:47:50.788Z,100024.41
2023-05-14T01:52:56.781Z,100025.59
2023-05-14T01:57:58.921Z,100039.75
2023-05-14T02:03:00.838Z,100041.88
2023-05-14T02:08:02.869Z,100040.34
2023-05-14T02:13:04.817Z,100047.59
2023-05-14T02:18:06.745Z,100046.22
2023-05-14T02:23:08.637Z,100043.38
2023-05-14T02:28:10.583Z,100056.94
2023-05-14T02:33:13.533Z,100050.69
2023-05-14T02:38:15.619Z,100061.47
2023-05-14T02:43:17.467Z,100064.22
2023-05-14T02:48:19.440Z,100060.66
2023-05-14T02:53:21.400Z,100066.72
2023-05-14T02:58:26.471Z,100069.47
2023-05-14T03:03:30.741Z,100064.53
2023-05-14T03:08:33.223Z,100066.06
2023-05-14T03:13:35.173Z,100069.47
2023-05-14T03:18:37.118Z,100079.00
2023-05-14T03:23:39.069Z,100076.69
2023-05-14T03:28:40.993Z,100081.72
2023-05-14T03:33:42.926Z,100092.13
2023-05-14T03:38:44.812Z,100091.84
2023-05-14T03:43:46.685Z,100093.84
2023-05-14T03:48:48.527Z,100099.13
2023-05-14T03:53:50.769Z,100097.41
2023-05-14T03:58:52.969Z,100100.22
2023-05-14T04:03:55.171Z,100098.72
2023-05-14T04:08:57.208Z,100108.97
2023-05-14T04:13:59.160Z,100107.28
2023-05-14T04:19:03.952Z,100107.22
2023-05-14T04:24:06.352Z,100104.66
2023-05-14T04:29:08.252Z,100110.88
2023-05-14T04:34:10.179Z,100105.56
2023-05-14T04:39:12.647Z,100109.09
2023-05-14T04:44:14.591Z,100115.13
2023-05-14T04:49:16.491Z,100120.47
2023-05-14T04:54:18.366Z,100116.19
2023-05-14T04:59:20.361Z,100116.81
2023-05-14T05:04:24.111Z,100116.88
2023-05-14T05:09:25.958Z,100109.06
2023-05-14T05:14:27.801Z,100111.75
2023-05-14T05:19:42.520Z,100110.13
2023-05-14T05:24:46.218Z,100107.00
2023-05-14T05:29:48.641Z,100108.22
2023-05-14T05:34:52.070Z,100097.91
2023-05-14T05:39:54.192Z,100092.66
2023-05-14T05:44:56.418Z,100103.25
2023-05-14T05:49:58.227Z,100101.81
2023-05-14T05:55:00.133Z,100093.78
2023-05-14T06:00:09.417Z,100087.25
2023-05-14T06:05:14.729Z,100093.47
2023-05-14T06:10:16.591Z,100092.03
2023-05-14T06:15:18.676Z,100094.66
2023-05-14T06:20:20.592Z,100092.19
2023-05-14T06:25:23.006Z,100087.84
2023-05-14T06:30:25.145Z,100075.91
2023-05-14T06:35:27.236Z,100073.81
2023-05-14T06:40:29.215Z,100070.97
2023-05-14T06:45:33.121Z,100078.72
2023-05-14T06:50:35.086Z,100074.84
2023-05-14T06:55:36.939Z,100087.03
2023-05-14T07:00:38.882Z,100082.91
2023-05-14T07:05:41.383Z,100087.72
2023-05-14T07:10:43.292Z,100097.53
2023-05-14T07:15:45.149Z,100100.25
2023-05-14T07:20:46.977Z,100099.16
2023-05-14T07:25:48.835Z,100107.66
2023-05-14T07:30:50.747Z,100107.25
2023-05-14T07:35:52.784Z,100109.78
2023-05-14T07:40:54.929Z,100106.91
2023-05-14T07:45:56.836Z,100116.44
2023-05-14T07:50:58.757Z,100112.53
2023-05-14T07:56:00.710Z,100121.72
2023-05-14T08:01:04.306Z,100112.66
2023-05-14T08:06:06.361Z,100111.50
2023-05-14T08:11:08.336Z,100117.13
2023-05-14T08:16:10.270Z,100125.00
2023-05-14T08:21:12.109Z,100126.28
2023-05-14T08:26:13.936Z,100126.59
2023-05-14T08:31:15.819Z,100120.44
2023-05-14T08:36:17.783Z,100116.72
2023-05-14T08:41:19.900Z,100121.53
2023-05-14T08:46:23.595Z,100123.81
2023-05-14T08:51:26.635Z,100118.56
2023-05-14T08:56:30.677Z,100117.34
2023-05-14T09:01:33.040Z,100117.28
2023-05-14T09:06:38.035Z,100119.56
2023-05-14T09:11:43.652Z,100115.75
2023-05-14T09:16:46.340Z,100118.72
2023-05-14T09:21:49.263Z,100112.75
2023-05-14T09:26:52.896Z,100114.94
2023-05-14T09:31:55.430Z,100114.63
2023-05-14T09:36:58.240Z,100116.25
2023-05-14T09:42:00.196Z,100116.84
2023-05-14T09:47:02.151Z,100109.88
2023-05-14T09:52:06.522Z,100105.00
2023-05-14T09:57:08.443Z,100096.22
2023-05-14T10:02:16.924Z,100094.38
2023-05-14T10:07:21.200Z,100096.25
2023-05-14T10:12:23.485Z,100095.41
2023-05-14T10:17:29.874Z,100098.44
2023-05-14T10:22:34.051Z,100098.75
2023-05-14T10:27:36.278Z,100095.69
2023-05-14T10:32:38.443Z,100101.47
2023-05-14T10:37:40.320Z,100103.78
2023-05-14T10:42:46.428Z,100088.00
2023-05-14T10:47:48.933Z,100097.16
2023-05-14T10:52:51.598Z,100109.69
2023-05-14T10:57:53.445Z,100094.44
2023-05-14T11:02:57.016Z,100096.22
2023-05-14T11:07:59.686Z,100102.66
2023-05-14T11:13:01.698Z,100091.56
2023-05-14T11:18:03.607Z,100093.50
2023-05-14T11:23:05.457Z,100094.78
2023-05-14T11:28:07.482Z,100089.94
2023-05-14T11:33:09.455Z,100093.16
2023-05-14T11:38:17.965Z,100086.22
2023-05-14T11:43:19.916Z,100093.13
2023-05-14T11:48:22.488Z,100090.53
2023-05-14T11:53:31.120Z,100087.69
2023-05-14T11:58:33.862Z,100082.03
2023-05-14T12:03:35.961Z,100091.59
2023-05-14T12:08:38.041Z,100090.22
2023-05-14T12:13:40.823Z,100083.44
2023-05-14T12:18:43.001Z,100086.72
2023-05-14T12:23:44.933Z,100081.53
2023-05-14T12:28:47.774Z,100075.44
2023-05-14T12:33:49.597Z,100079.72
2023-05-14T12:38:57.101Z,100074.31
2023-05-14T12:43:59.560Z,100083.59
2023-05-14T12:49:01.379Z,100080.13
2023-05-14T12:54:03.275Z,100082.59
2023-05-14T12:59:05.398Z,100080.97
2023-05-14T13:04:08.077Z,100081.47
2023-05-14T13:09:10.076Z,100086.59
2023-05-14T13:14:11.960Z,100083.13
2023-05-14T13:19:15.020Z,100094.50
2023-05-14T13:24:17.620Z,100086.19
2023-05-14T13:29:19.508Z,100090.13
2023-05-14T13:34:21.446Z,100091.31
2023-05-14T13:39:27.282Z,100091.53
2023-05-14T13:44:29.567Z,100092.63
2023-05-14T13:49:31.517Z,100087.31
2023-05-14T13:54:33.351Z,100093.00
2023-05-14T13:59:35.749Z,100091.38
2023-05-14T14:04:37.628Z,100087.16
2023-05-14T14:09:39.560Z,100082.00
2023-05-14T14:14:41.440Z,100086.31
2023-05-14T14:19:43.307Z,100081.31
2023-05-14T14:24:45.227Z,100071.03
2023-05-14T14:29:47.128Z,100077.97
2023-05-14T14:34:48.947Z,100077.06
2023-05-14T14:39:50.785Z,100075.53
2023-05-14T14:44:52.624Z,100068.72
2023-05-14T14:49:54.470Z,100080.69
2023-05-14T14:54:56.632Z,100070.69
2023-05-14T15:05:00.662Z,100087.31
2023-05-14T15:10:02.487Z,100093.53
2023-05-14T15:15:05.970Z,100087.00
2023-05-14T15:20:09.036Z,100095.59
2023-05-14T15:25:11.114Z,100087.16
2023-05-14T15:30:13.461Z,100088.78
2023-05-14T15:35:15.448Z,100088.91
2023-05-14T15:40:18.962Z,100088.31
2023-05-14T15:45:21.172Z,100087.41
2023-05-14T15:50:23.186Z,100082.94
2023-05-14T15:55:25.192Z,100083.75
2023-05-14T16:00:27.233Z,100085.34
2023-05-14T16:05:29.536Z,100075.94
2023-05-14T16:10:31.453Z,100077.00
2023-05-14T16:15:33.425Z,100075.06
2023-05-14T16:20:35.474Z,100085.31
2023-05-14T16:25:38.340Z,100074.38
2023-05-14T16:30:40.267Z,100076.13
2023-05-14T16:35:42.219Z,100082.91
2023-05-14T16:40:44.038Z,100087.81
2023-05-14T16:45:45.984Z,100093.03
2023-05-14T16:50:47.943Z,100089.69
2023-05-14T16:55:49.849Z,100102.81
2023-05-14T17:00:51.755Z,100102.06
2023-05-14T17:05:55.072Z,100108.06
2023-05-14T17:10:57.026Z,100107.88
2023-05-14T17:15:59.083Z,100106.84
2023-05-14T17:21:01.148Z,100117.34
2023-05-14T17:26:03.116Z,100117.72
2023-05-14T17:31:05.023Z,100114.75
2023-05-14T17:36:07.173Z,100125.44
2023-05-14T17:41:09.813Z,100129.31
2023-05-14T17:46:11.671Z,100122.00
2023-05-14T17:51:13.685Z,100131.19
2023-05-14T17:56:17.652Z,100131.50
2023-05-14T18:01:19.543Z,100134.47
2023-05-14T18:06:21.559Z,100140.09
2023-05-14T18:11:23.369Z,100139.19
2023-05-14T18:16:25.394Z,100138.84
2023-05-14T18:21:27.298Z,100143.72
2023-05-14T18:26:29.252Z,100139.50
2023-05-14T18:31:31.295Z,100144.34
2023-05-14T18:36:33.302Z,100148.53
2023-05-14T18:41:35.344Z,100142.50
2023-05-14T18:46:37.296Z,100137.25
2023-05-14T18:51:39.158Z,100141.72
2023-05-14T18:56:46.046Z,100143.66
2023-05-14T19:01:49.277Z,100150.38
2023-05-14T19:06:51.190Z,100144.13
2023-05-14T19:11:53.090Z,100150.38
2023-05-14T19:16:54.993Z,100144.13
2023-05-14T19:21:56.905Z,100152.06
2023-05-14T19:26:58.810Z,100154.16
2023-05-14T19:32:00.910Z,100155.28
2023-05-14T19:37:02.924Z,100157.22
2023-05-14T19:42:04.877Z,100160.13
2023-05-14T19:47:07.522Z,100163.06
2023-05-14T19:52:11.741Z,100160.94
2023-05-14T19:57:13.537Z,100166.19
2023-05-14T20:02:18.610Z,100156.25
2023-05-14T20:07:20.571Z,100162.13
2023-05-14T20:12:22.381Z,100161.81
2023-05-14T20:17:24.966Z,100153.34
2023-05-14T20:22:26.870Z,100162.91
2023-05-14T20:27:28.721Z,100155.44
2023-05-14T20:32:30.717Z,100157.81
2023-05-14T20:37:33.184Z,100162.06
2023-05-14T20:42:36.499Z,100160.88
2023-05-14T20:47:38.457Z,100161.75
2023-05-14T20:52:40.484Z,100161.28
2023-05-14T20:57:43.485Z,100159.53
2023-05-14T21:02:45.789Z,100159.41
2023-05-14T21:07:48.105Z,100159.25
2023-05-14T21:12:50.045Z,100161.81
2023-05-14T21:17:51.948Z,100155.53
2023-05-14T21:22:53.866Z,100161.38
2023-05-14T21:27:55.773Z,100166.41
2023-05-14T21:32:57.695Z,100152.63
2023-05-14T21:37:59.607Z,100159.13
2023-05-14T21:43:01.586Z,100158.97
2023-05-14T21:48:03.666Z,100158.50
2023-05-14T21:53:05.672Z,100151.88
2023-05-14T21:58:07.632Z,100148.06
2023-05-14T22:03:09.651Z,100149.59
2023-05-14T22:08:11.702Z,100149.81
2023-05-14T22:13:13.517Z,100156.97
2023-05-14T22:18:15.787Z,100165.81
2023-05-14T22:23:17.637Z,100157.03
2023-05-14T22:28:19.582Z,100153.22
2023-05-14T22:33:21.404Z,100158.38
2023-05-14T22:38:23.266Z,100147.75
2023-05-14T22:43:25.192Z,100152.41
2023-05-14T22:48:27.154Z,100160.72
2023-05-14T22:53:29.026Z,100161.38
2023-05-14T22:58:30.862Z,100165.72
2023-05-14T23:03:32.745Z,100172.53
2023-05-14T23:08:34.731Z,100167.88
2023-05-14T23:13:36.674Z,100165.38
2023-05-14T23:18:38.623Z,100167.91
2023-05-14T23:23:40.720Z,100167.72
2023-05-14T23:28:42.509Z,100170.19
2023-05-14T23:33:44.819Z,100171.03
2023-05-14T23:38:47.153Z,100174.50
2023-05-14T23:43:49.301Z,100170.88
2023-05-14T23:48:52.223Z,100174.19
2023-05-14T23:53:58.329Z,100175.81
2023-05-14T23:59:00.270Z,100174.97
